Terminal Aerodrome Forecast
Issued by NWS

Home | Current Version | Previous Version | Text Only | Print | Product List | Glossary On
Versions: 1 2 3 4 5 6 7 8 9 10 11 12 13 14 15 16 17 18 19 20 21 22 23 24 25 26 27 28 29 30 31 32 33 34 35 36 37 38
108
FTAK31 PAFA 240803 AAA
TAFAQT
TAF AMD
PAQT 240803Z 2408/2506 17016KT P6SM BKN030 OVC035
     FM241200 18012KT 4SM -SN BR BKN015 OVC025
     FM241500 15010KT 2SM -SN BR BKN015 OVC025
     FM241800 12010KT 4SM -SN BR BKN015 OVC025=

USA.gov is the U.S. government's official web portal to all federal, state and local government web resources and services.